createdAt,value
2018-07-26T00:00:24.430Z,99.90
2018-07-26T00:02:52.748Z,99.90
2018-07-26T00:05:21.077Z,99.90
2018-07-26T00:07:49.365Z,99.90
2018-07-26T00:10:17.652Z,99.90
2018-07-26T00:12:46.029Z,99.90
2018-07-26T00:15:15.276Z,99.90
2018-07-26T00:17:44.924Z,99.90
2018-07-26T00:20:14.897Z,99.90
2018-07-26T00:22:44.475Z,99.90
2018-07-26T00:25:12.941Z,99.90
2018-07-26T00:27:41.267Z,99.90
2018-07-26T00:30:09.579Z,99.90
2018-07-26T00:32:37.894Z,99.90
2018-07-26T00:35:06.172Z,99.90
2018-07-26T00:37:34.496Z,99.90
2018-07-26T00:40:02.801Z,99.90
2018-07-26T00:42:31.112Z,99.90
2018-07-26T00:44:59.637Z,99.90
2018-07-26T00:47:28.846Z,99.90
2018-07-26T00:49:57.210Z,99.90
2018-07-26T00:52:25.511Z,99.90
2018-07-26T00:54:53.004Z,99.90
2018-07-26T00:57:21.277Z,99.90
2018-07-26T00:59:49.591Z,99.90
2018-07-26T01:02:17.867Z,99.90
2018-07-26T01:04:46.201Z,99.90
2018-07-26T01:07:14.479Z,99.90
2018-07-26T01:09:42.983Z,99.90
2018-07-26T01:12:11.248Z,99.90
2018-07-26T01:14:39.549Z,99.90
2018-07-26T01:17:07.843Z,99.90
2018-07-26T01:19:36.127Z,99.90
2018-07-26T01:22:04.448Z,99.90
2018-07-26T01:24:32.724Z,99.90
2018-07-26T01:27:04.275Z,99.90
2018-07-26T01:29:31.791Z,99.90
2018-07-26T01:32:00.148Z,99.90
2018-07-26T01:34:29.816Z,99.90
2018-07-26T01:36:59.117Z,99.90
2018-07-26T01:39:28.048Z,99.90
2018-07-26T01:41:56.363Z,99.90
2018-07-26T01:44:24.645Z,99.90
2018-07-26T01:46:52.937Z,99.90
2018-07-26T01:49:21.212Z,99.90
2018-07-26T01:51:49.576Z,99.90
2018-07-26T01:54:17.841Z,99.90
2018-07-26T01:56:46.159Z,99.90
2018-07-26T01:59:14.440Z,99.90
2018-07-26T02:01:42.785Z,99.90
2018-07-26T02:07:04.233Z,99.90
2018-07-26T02:09:32.517Z,99.90
2018-07-26T02:12:00.793Z,99.90
2018-07-26T02:14:30.992Z,99.90
2018-07-26T02:25:58.938Z,99.90
2018-07-26T02:28:27.887Z,99.90
2018-07-26T02:30:56.238Z,99.90
2018-07-26T02:33:24.452Z,99.90
2018-07-26T02:35:52.778Z,99.90
2018-07-26T02:38:21.038Z,99.90
2018-07-26T02:40:49.354Z,99.90
2018-07-26T02:43:17.663Z,99.90
2018-07-26T02:45:45.961Z,99.90
2018-07-26T02:48:15.243Z,99.90
2018-07-26T02:50:43.569Z,99.90
2018-07-26T02:53:11.859Z,99.90
2018-07-26T02:55:40.213Z,99.90
2018-07-26T02:58:08.505Z,99.90
2018-07-26T03:00:36.782Z,99.90
2018-07-26T03:03:05.109Z,99.90
2018-07-26T03:05:33.378Z,99.90
2018-07-26T03:08:01.653Z,99.90
2018-07-26T03:10:29.995Z,99.90
2018-07-26T03:12:58.269Z,99.90
2018-07-26T03:15:26.576Z,99.90
2018-07-26T03:17:54.850Z,99.90
2018-07-26T03:20:23.140Z,99.90
2018-07-26T03:22:51.414Z,99.90
2018-07-26T03:25:19.702Z,99.90
2018-07-26T03:27:47.214Z,99.90
2018-07-26T03:30:15.848Z,99.90
2018-07-26T03:32:44.820Z,99.90
2018-07-26T03:35:13.080Z,99.90
2018-07-26T03:37:41.405Z,99.90
2018-07-26T03:40:09.669Z,99.90
2018-07-26T03:42:37.972Z,99.90
2018-07-26T03:45:06.278Z,99.90
2018-07-26T03:47:34.553Z,99.90
2018-07-26T03:50:02.856Z,99.90
2018-07-26T03:52:31.144Z,99.90
2018-07-26T03:54:59.446Z,99.90
2018-07-26T03:57:27.763Z,99.90
2018-07-26T04:05:42.112Z,99.90
2018-07-26T04:08:10.394Z,99.90
2018-07-26T04:10:38.701Z,99.90
2018-07-26T04:13:07.010Z,99.90
2018-07-26T04:15:35.325Z,99.90
2018-07-26T04:18:03.638Z,99.90
2018-07-26T04:20:31.944Z,99.90
2018-07-26T04:23:00.251Z,99.90
2018-07-26T04:25:31.984Z,99.90
2018-07-26T04:28:00.304Z,99.90
2018-07-26T04:30:29.667Z,99.90
2018-07-26T04:32:58.959Z,99.90
2018-07-26T04:35:27.753Z,99.90
2018-07-26T04:37:56.054Z,99.90
2018-07-26T04:40:24.332Z,99.90
2018-07-26T04:42:52.682Z,99.90
2018-07-26T04:45:20.941Z,99.90
2018-07-26T04:47:49.253Z,99.90
2018-07-26T04:50:17.535Z,99.90
2018-07-26T04:52:45.869Z,99.90
2018-07-26T04:55:15.454Z,99.90
2018-07-26T04:57:44.801Z,99.90
2018-07-26T05:00:13.090Z,99.90
2018-07-26T05:02:41.440Z,99.90
2018-07-26T05:05:09.060Z,99.90
2018-07-26T05:07:37.376Z,99.90
2018-07-26T05:10:05.664Z,99.90
2018-07-26T05:12:33.243Z,99.90
2018-07-26T05:15:01.518Z,99.90
2018-07-26T05:17:29.805Z,99.90
2018-07-26T05:19:59.132Z,99.90
2018-07-26T05:22:27.802Z,99.90
2018-07-26T05:24:56.144Z,99.90
2018-07-26T05:27:24.391Z,99.90
2018-07-26T05:29:53.270Z,99.90
2018-07-26T05:32:20.776Z,99.90
2018-07-26T05:34:49.081Z,99.90
2018-07-26T05:37:17.402Z,99.90
2018-07-26T05:39:45.682Z,99.90
2018-07-26T05:42:14.425Z,99.90
2018-07-26T05:44:41.948Z,99.90
2018-07-26T05:47:10.252Z,99.90
2018-07-26T05:49:37.765Z,99.90
2018-07-26T05:52:06.092Z,99.90
2018-07-26T05:54:34.371Z,99.90
2018-07-26T05:57:02.683Z,99.90
2018-07-26T05:59:30.986Z,99.90
2018-07-26T06:02:00.493Z,99.90
2018-07-26T06:04:29.589Z,99.90
2018-07-26T06:06:58.754Z,99.90
2018-07-26T06:09:27.062Z,99.90
2018-07-26T06:11:56.197Z,99.90
2018-07-26T06:14:24.486Z,99.90
2018-07-26T06:16:52.767Z,99.90
2018-07-26T06:19:21.026Z,99.90
2018-07-26T06:21:49.329Z,99.90
2018-07-26T06:24:17.607Z,99.90
2018-07-26T06:26:45.882Z,99.90
2018-07-26T06:29:15.453Z,99.90
2018-07-26T06:31:44.821Z,99.90
2018-07-26T06:34:14.702Z,99.90
2018-07-26T06:36:43.010Z,99.90
2018-07-26T06:39:11.345Z,99.90
2018-07-26T06:41:39.646Z,99.90
2018-07-26T06:44:07.938Z,99.90
2018-07-26T06:46:36.245Z,99.90
2018-07-26T06:49:08.125Z,99.90
2018-07-26T06:51:36.428Z,99.90
2018-07-26T06:54:04.758Z,99.90
2018-07-26T06:56:33.028Z,99.90
2018-07-26T06:59:01.309Z,99.90
2018-07-26T07:01:29.601Z,99.90
2018-07-26T07:03:58.716Z,99.90
2018-07-26T07:06:27.032Z,99.90
2018-07-26T07:08:55.286Z,99.90
2018-07-26T07:11:23.546Z,99.90
2018-07-26T07:13:51.844Z,99.90
2018-07-26T07:16:20.121Z,99.90
2018-07-26T07:18:48.432Z,99.90
2018-07-26T07:21:16.705Z,99.90
2018-07-26T07:23:46.024Z,99.90
2018-07-26T07:26:15.413Z,99.90
2018-07-26T07:28:44.636Z,99.90
2018-07-26T07:31:12.975Z,99.90
2018-07-26T07:33:41.312Z,99.90
2018-07-26T07:36:09.637Z,99.90
2018-07-26T07:38:37.909Z,99.90
2018-07-26T07:41:06.219Z,99.90
2018-07-26T07:43:34.499Z,99.90
2018-07-26T07:46:02.818Z,99.90
2018-07-26T07:48:30.378Z,99.90
2018-07-26T07:50:59.816Z,99.90
2018-07-26T07:53:29.205Z,99.90
2018-07-26T07:55:56.712Z,99.90
2018-07-26T07:58:26.082Z,99.90
2018-07-26T08:00:54.377Z,99.90
2018-07-26T08:03:21.929Z,99.90
2018-07-26T08:05:49.472Z,99.90
2018-07-26T08:08:17.100Z,99.90
2018-07-26T08:10:45.977Z,99.90
2018-07-26T08:13:15.530Z,99.90
2018-07-26T08:15:44.937Z,99.90
2018-07-26T08:18:14.924Z,99.90
2018-07-26T08:20:44.464Z,99.90
2018-07-26T08:23:12.748Z,99.90
2018-07-26T08:25:41.055Z,99.90
2018-07-26T08:28:09.325Z,99.90
2018-07-26T08:30:37.613Z,99.90
2018-07-26T08:33:05.923Z,99.90
2018-07-26T08:35:34.237Z,99.90
2018-07-26T08:38:01.794Z,99.90
2018-07-26T08:40:30.090Z,99.90
2018-07-26T08:42:58.385Z,99.90
2018-07-26T08:45:26.691Z,99.90
2018-07-26T08:47:54.969Z,99.90
2018-07-26T08:50:23.251Z,99.90
2018-07-26T08:52:51.552Z,99.90
2018-07-26T08:55:19.070Z,99.90
2018-07-26T08:57:47.399Z,99.90
2018-07-26T09:00:15.676Z,99.90
2018-07-26T09:02:45.021Z,99.90
2018-07-26T09:05:14.232Z,99.90
2018-07-26T09:07:42.506Z,99.90
2018-07-26T09:10:10.802Z,99.90
2018-07-26T09:12:38.308Z,99.90
2018-07-26T09:15:06.642Z,99.90
2018-07-26T09:17:34.926Z,99.90
2018-07-26T09:20:03.244Z,99.90
2018-07-26T09:22:31.534Z,99.90
2018-07-26T09:24:59.867Z,99.90
2018-07-26T09:27:27.925Z,99.90
2018-07-26T09:29:56.214Z,99.90
2018-07-26T09:32:24.525Z,99.90
2018-07-26T09:34:52.800Z,99.90
2018-07-26T09:37:21.113Z,99.90
2018-07-26T09:39:49.425Z,99.90
2018-07-26T09:42:17.733Z,99.90
2018-07-26T09:44:46.021Z,99.90
2018-07-26T09:47:15.320Z,99.90
2018-07-26T09:49:43.584Z,99.90
2018-07-26T09:52:11.844Z,99.90
2018-07-26T09:54:40.119Z,99.90
2018-07-26T09:57:08.409Z,99.90
2018-07-26T09:59:36.691Z,99.90
2018-07-26T10:02:04.976Z,99.90
2018-07-26T10:04:33.242Z,99.90
2018-07-26T10:07:02.411Z,99.90
2018-07-26T10:09:30.708Z,99.90
2018-07-26T10:11:59.846Z,99.90
2018-07-26T10:14:29.241Z,99.90
2018-07-26T10:16:57.918Z,99.90
2018-07-26T10:19:26.231Z,99.90
2018-07-26T10:21:54.604Z,99.90
2018-07-26T10:24:22.288Z,99.90
2018-07-26T10:26:50.569Z,99.90
2018-07-26T10:29:18.844Z,99.90
2018-07-26T10:31:47.136Z,99.90
2018-07-26T10:34:15.560Z,99.90
2018-07-26T10:36:44.311Z,99.90
2018-07-26T10:39:12.570Z,99.90
2018-07-26T10:41:40.870Z,99.90
2018-07-26T10:44:09.149Z,99.90
2018-07-26T10:46:37.437Z,99.90
2018-07-26T10:49:05.714Z,99.90
2018-07-26T10:51:34.022Z,99.90
2018-07-26T10:54:03.302Z,99.50
2018-07-26T10:56:31.598Z,99.90
2018-07-26T10:58:59.104Z,99.90
2018-07-26T11:01:27.897Z,99.90
2018-07-26T11:03:57.065Z,99.90
2018-07-26T11:06:25.430Z,99.90
2018-07-26T11:08:52.917Z,99.90
2018-07-26T11:11:21.246Z,99.30
2018-07-26T11:13:49.512Z,99.90
2018-07-26T11:16:17.796Z,99.90
2018-07-26T11:18:46.999Z,98.80
2018-07-26T11:21:15.985Z,99.00
2018-07-26T11:23:45.102Z,96.60
2018-07-26T11:26:12.634Z,96.60
2018-07-26T11:28:40.907Z,99.90
2018-07-26T11:31:09.216Z,96.70
2018-07-26T11:33:37.496Z,98.30
2018-07-26T11:36:05.794Z,96.70
2018-07-26T11:38:33.331Z,96.70
2018-07-26T11:41:01.608Z,92.70
2018-07-26T11:43:29.898Z,94.50
2018-07-26T11:45:59.081Z,95.10
2018-07-26T11:48:28.477Z,93.50
2018-07-26T11:50:56.742Z,95.20
2018-07-26T11:53:24.299Z,95.20
2018-07-26T11:55:52.598Z,93.10
2018-07-26T11:58:20.885Z,94.50
2018-07-26T12:00:49.153Z,97.70
2018-07-26T12:03:18.156Z,93.70
2018-07-26T12:05:45.666Z,93.70
2018-07-26T12:08:15.418Z,92.20
2018-07-26T12:10:44.200Z,94.40
2018-07-26T12:13:11.748Z,94.40
2018-07-26T12:15:40.017Z,89.70
2018-07-26T12:18:08.338Z,91.90
2018-07-26T12:20:36.613Z,91.50
2018-07-26T12:23:05.009Z,91.10
2018-07-26T12:25:33.228Z,91.50
2018-07-26T12:28:01.541Z,91.20
2018-07-26T12:30:29.817Z,91.60
2018-07-26T12:32:58.941Z,91.20
2018-07-26T12:35:27.961Z,91.00
2018-07-26T12:37:56.246Z,84.40
2018-07-26T12:40:24.542Z,79.50
2018-07-26T12:42:53.328Z,88.10
2018-07-26T12:45:20.869Z,87.30
2018-07-26T12:47:49.145Z,84.70
2018-07-26T12:50:17.448Z,84.30
2018-07-26T12:52:45.718Z,84.20
2018-07-26T12:55:15.213Z,80.10
2018-07-26T12:57:43.482Z,82.00
2018-07-26T13:00:11.760Z,90.10
2018-07-26T13:02:40.062Z,90.70
2018-07-26T13:05:08.342Z,87.70
2018-07-26T13:07:36.648Z,90.90
2018-07-26T13:10:04.947Z,90.20
2018-07-26T13:12:33.245Z,88.20
2018-07-26T13:15:01.511Z,91.00
2018-07-26T13:17:29.805Z,92.20
2018-07-26T13:19:59.248Z,90.10
2018-07-26T13:22:27.947Z,92.70
2018-07-26T13:24:56.217Z,90.70
2018-07-26T13:27:23.777Z,90.70
2018-07-26T13:29:52.053Z,83.30
2018-07-26T13:32:20.360Z,86.00
2018-07-26T13:34:47.858Z,85.90
2018-07-26T13:37:16.153Z,90.90
2018-07-26T13:39:44.425Z,92.90
2018-07-26T13:42:12.726Z,90.50
2018-07-26T13:44:41.021Z,91.70
2018-07-26T13:47:09.293Z,90.90
2018-07-26T13:49:37.593Z,91.60
2018-07-26T13:52:05.865Z,89.60
2018-07-26T13:54:34.253Z,87.80
2018-07-26T13:57:02.540Z,90.60
2018-07-26T13:59:30.836Z,91.10
2018-07-26T14:02:00.070Z,91.70
2018-07-26T14:04:29.357Z,90.50
2018-07-26T14:06:58.059Z,93.50
2018-07-26T14:09:26.344Z,93.00
2018-07-26T14:11:54.665Z,93.90
2018-07-26T14:14:22.930Z,94.50
2018-07-26T14:16:51.237Z,93.10
2018-07-26T14:19:19.534Z,91.70
2018-07-26T14:21:47.817Z,91.00
2018-07-26T14:24:16.131Z,90.50
2018-07-26T14:26:44.393Z,84.80
2018-07-26T14:29:11.896Z,84.70
2018-07-26T14:31:40.202Z,84.60
2018-07-26T14:34:07.706Z,85.40
2018-07-26T14:36:36.016Z,84.40
2018-07-26T14:39:03.525Z,84.20
2018-07-26T14:41:31.823Z,86.10
2018-07-26T14:44:00.089Z,85.00
2018-07-26T14:46:29.280Z,83.80
2018-07-26T14:48:58.033Z,85.40
2018-07-26T14:51:29.538Z,85.30
2018-07-26T14:53:58.897Z,83.30
2018-07-26T14:56:27.188Z,84.30
2018-07-26T14:58:55.482Z,84.90
2018-07-26T15:01:23.746Z,87.50
2018-07-26T15:03:55.381Z,79.50
2018-07-26T15:06:23.646Z,84.40
2018-07-26T15:08:51.950Z,75.70
2018-07-26T15:11:20.209Z,73.30
2018-07-26T15:13:48.520Z,73.80
2018-07-26T15:16:16.826Z,73.40
2018-07-26T15:18:46.245Z,74.20
2018-07-26T15:23:49.021Z,78.10
2018-07-26T15:26:17.349Z,77.00
2018-07-26T15:28:45.592Z,73.10
2018-07-26T15:31:16.889Z,70.20
2018-07-26T15:33:42.653Z,70.10
2018-07-26T15:36:10.952Z,73.40
2018-07-26T15:38:39.245Z,77.20
2018-07-26T15:41:07.509Z,75.70
2018-07-26T15:43:36.676Z,75.10
2018-07-26T15:46:04.958Z,72.60
2018-07-26T15:48:33.215Z,71.80
2018-07-26T15:51:01.528Z,76.30
2018-07-26T15:53:29.800Z,76.30
2018-07-26T15:55:59.579Z,78.90
2018-07-26T15:58:29.005Z,73.70
2018-07-26T16:00:57.376Z,76.40
2018-07-26T16:03:26.514Z,70.50
2018-07-26T16:05:54.887Z,72.60
2018-07-26T16:08:23.145Z,65.90
2018-07-26T16:10:51.412Z,68.70
2018-07-26T16:13:19.698Z,74.50
2018-07-26T16:15:47.973Z,70.50
2018-07-26T16:18:16.273Z,71.50
2018-07-26T16:20:44.961Z,71.40
2018-07-26T16:23:14.003Z,75.30
2018-07-26T16:25:42.280Z,75.20
2018-07-26T16:28:10.596Z,68.40
2018-07-26T16:30:38.900Z,68.50
2018-07-26T16:33:07.166Z,75.00
2018-07-26T16:35:35.458Z,71.00
2018-07-26T16:38:03.724Z,74.80
2018-07-26T16:40:32.036Z,72.20
2018-07-26T16:43:00.354Z,70.80
2018-07-26T16:45:28.746Z,71.40
2018-07-26T16:47:56.967Z,70.50
2018-07-26T16:50:25.272Z,72.50
2018-07-26T16:52:53.566Z,70.70
2018-07-26T16:55:21.850Z,77.10
2018-07-26T16:57:50.125Z,80.10
2018-07-26T17:00:18.412Z,84.00
2018-07-26T17:02:46.691Z,87.50
2018-07-26T17:05:15.605Z,82.80
2018-07-26T17:07:44.414Z,86.20
2018-07-26T17:10:12.707Z,90.10
2018-07-26T17:12:40.969Z,89.00
2018-07-26T17:15:09.264Z,90.20
2018-07-26T17:17:37.547Z,91.20
2018-07-26T17:20:05.863Z,90.40
2018-07-26T17:22:34.133Z,88.10
2018-07-26T17:25:02.430Z,83.30
2018-07-26T17:27:30.728Z,88.90
2018-07-26T17:29:59.524Z,90.60
2018-07-26T17:32:28.498Z,91.10
2018-07-26T17:34:56.805Z,85.00
2018-07-26T17:37:25.140Z,84.00
2018-07-26T17:39:54.224Z,85.40
2018-07-26T17:42:22.541Z,86.70
2018-07-26T17:44:51.913Z,86.80
2018-07-26T17:47:20.189Z,87.90
2018-07-26T17:49:48.499Z,89.10
2018-07-26T17:52:16.771Z,90.40
2018-07-26T17:54:45.690Z,92.20
2018-07-26T17:57:14.972Z,95.30
2018-07-26T17:59:44.565Z,96.30
2018-07-26T18:02:12.869Z,97.00
2018-07-26T18:04:41.157Z,96.20
2018-07-26T18:07:09.461Z,95.20
2018-07-26T18:09:37.750Z,94.10
2018-07-26T18:12:06.084Z,92.00
2018-07-26T18:14:33.615Z,91.90
2018-07-26T18:17:01.925Z,93.60
2018-07-26T18:19:30.225Z,92.90
2018-07-26T18:21:58.544Z,94.30
2018-07-26T18:24:26.865Z,93.50
2018-07-26T18:26:55.188Z,95.20
2018-07-26T18:29:22.877Z,95.20
2018-07-26T18:31:51.204Z,92.10
2018-07-26T18:34:19.521Z,92.20
2018-07-26T18:36:47.864Z,92.00
2018-07-26T18:39:16.141Z,92.40
2018-07-26T18:41:44.453Z,93.80
2018-07-26T18:44:12.771Z,95.80
2018-07-26T18:46:41.138Z,93.60
2018-07-26T18:49:09.487Z,94.10
2018-07-26T18:51:37.761Z,96.10
2018-07-26T18:54:06.034Z,96.60
2018-07-26T18:56:33.581Z,96.50
2018-07-26T18:59:01.896Z,95.40
2018-07-26T19:01:30.208Z,95.60
2018-07-26T19:03:58.554Z,96.50
2018-07-26T19:06:26.879Z,96.80
2018-07-26T19:08:55.144Z,95.90
2018-07-26T19:11:23.483Z,96.90
2018-07-26T19:13:52.702Z,97.50
2018-07-26T19:16:21.016Z,99.70
2018-07-26T19:18:49.299Z,98.20
2018-07-26T19:21:17.617Z,99.70
2018-07-26T19:23:45.928Z,98.30
2018-07-26T19:26:13.475Z,98.30
2018-07-26T19:28:41.829Z,99.40
2018-07-26T19:31:10.263Z,99.80
2018-07-26T19:33:38.549Z,99.90
2018-07-26T19:36:06.105Z,99.90
2018-07-26T19:38:34.365Z,99.90
2018-07-26T19:41:02.775Z,99.90
2018-07-26T19:43:31.094Z,99.90
2018-07-26T19:46:00.160Z,99.90
2018-07-26T19:48:29.636Z,99.90
2018-07-26T19:50:58.812Z,99.90
2018-07-26T19:53:27.121Z,99.90
2018-07-26T19:55:55.409Z,99.90
2018-07-26T19:58:23.727Z,99.90
2018-07-26T20:00:52.044Z,99.90
2018-07-26T20:03:19.621Z,99.90
2018-07-26T20:05:47.897Z,99.90
2018-07-26T20:08:18.444Z,99.90
2018-07-26T20:10:46.726Z,99.90
2018-07-26T20:13:16.214Z,99.90
2018-07-26T20:15:44.728Z,99.90
2018-07-26T20:18:13.054Z,98.20
2018-07-26T20:20:42.307Z,98.20
2018-07-26T20:23:09.879Z,98.20
2018-07-26T20:25:38.194Z,95.90
2018-07-26T20:28:05.785Z,95.80
2018-07-26T20:30:34.020Z,95.20
2018-07-26T20:33:02.492Z,93.50
2018-07-26T20:35:30.811Z,93.70
2018-07-26T20:38:00.195Z,94.70
2018-07-26T20:40:29.542Z,95.90
2018-07-26T20:42:59.038Z,93.20
2018-07-26T20:45:27.308Z,92.20
2018-07-26T20:47:55.669Z,91.90
2018-07-26T20:50:23.945Z,93.60
2018-07-26T20:52:52.245Z,92.70
2018-07-26T20:55:20.527Z,92.80
2018-07-26T20:57:48.873Z,92.60
2018-07-26T21:00:17.187Z,92.40
2018-07-26T21:02:46.243Z,92.80
2018-07-26T21:05:14.645Z,93.00
2018-07-26T21:07:42.917Z,92.90
2018-07-26T21:10:11.287Z,91.80
2018-07-26T21:12:39.573Z,92.20
2018-07-26T21:15:07.872Z,92.20
2018-07-26T21:17:36.147Z,92.50
2018-07-26T21:20:04.505Z,92.40
2018-07-26T21:22:32.773Z,91.70
2018-07-26T21:25:01.045Z,91.80
2018-07-26T21:27:30.446Z,92.50
2018-07-26T21:29:58.720Z,92.80
2018-07-26T21:32:26.273Z,92.80
2018-07-26T21:34:54.568Z,92.90
2018-07-26T21:37:22.829Z,92.80
2018-07-26T21:39:50.361Z,92.80
2018-07-26T21:42:18.670Z,93.10
2018-07-26T21:44:46.943Z,93.20
2018-07-26T21:47:16.007Z,92.80
2018-07-26T21:49:45.274Z,93.40
2018-07-26T21:52:13.557Z,94.10
2018-07-26T21:54:41.057Z,94.10
2018-07-26T21:57:09.414Z,93.50
2018-07-26T21:59:37.734Z,93.20
2018-07-26T22:02:06.021Z,93.30
2018-07-26T22:04:34.334Z,94.00
2018-07-26T22:07:01.865Z,93.90
2018-07-26T22:09:30.125Z,93.00
2018-07-26T22:11:59.474Z,93.30
2018-07-26T22:14:28.370Z,94.00
2018-07-26T22:16:56.661Z,93.90
2018-07-26T22:19:24.949Z,93.90
2018-07-26T22:21:53.313Z,93.30
2018-07-26T22:24:21.637Z,93.70
2018-07-26T22:26:49.936Z,94.20
2018-07-26T22:29:18.242Z,94.20
2018-07-26T22:31:46.518Z,93.80
2018-07-26T22:34:16.070Z,94.20
2018-07-26T22:36:44.338Z,93.60
2018-07-26T22:39:12.624Z,93.70
2018-07-26T22:41:40.936Z,93.80
2018-07-26T22:44:09.206Z,94.20
2018-07-26T22:46:37.540Z,94.20
2018-07-26T22:49:05.836Z,94.00
2018-07-26T22:51:34.092Z,94.20
2018-07-26T22:54:02.371Z,94.60
2018-07-26T22:56:30.645Z,94.20
2018-07-26T22:58:59.881Z,93.40
2018-07-26T23:01:28.206Z,94.00
2018-07-26T23:03:56.557Z,93.50
2018-07-26T23:06:24.867Z,94.70
2018-07-26T23:08:53.185Z,94.10
2018-07-26T23:11:21.486Z,94.30
2018-07-26T23:13:49.782Z,94.90
2018-07-26T23:16:18.071Z,94.30
2018-07-26T23:18:45.577Z,94.30
2018-07-26T23:21:14.353Z,93.80
2018-07-26T23:23:46.180Z,95.50
2018-07-26T23:26:14.494Z,94.90
2018-07-26T23:28:42.754Z,94.90
2018-07-26T23:31:11.064Z,94.10
2018-07-26T23:33:39.328Z,94.90
2018-07-26T23:36:07.737Z,95.50
2018-07-26T23:38:36.072Z,95.00
2018-07-26T23:41:04.397Z,94.60
2018-07-26T23:43:33.198Z,95.00
2018-07-26T23:46:01.523Z,95.80
2018-07-26T23:48:29.796Z,94.50
2018-07-26T23:50:58.989Z,95.00
2018-07-26T23:53:27.273Z,94.50
2018-07-26T23:55:55.573Z,95.00
2018-07-26T23:58:23.894Z,94.50
